sensor_id;sensor_type;location;lat;lon;timestamp;P1;durP1;ratioP1;P2;durP2;ratioP2
27580;SDS011;63557;52.302;7.964;2022-11-04T00:02:48;10.95;;;6.93;;
27580;SDS011;63557;52.302;7.964;2022-11-04T00:07:48;10.17;;;6.80;;
27580;SDS011;63557;52.302;7.964;2022-11-04T00:13:07;11.45;;;7.30;;
27580;SDS011;63557;52.302;7.964;2022-11-04T00:18:07;11.07;;;7.30;;
27580;SDS011;63557;52.302;7.964;2022-11-04T00:23:07;8.90;;;7.23;;
27580;SDS011;63557;52.302;7.964;2022-11-04T00:28:26;11.25;;;8.13;;
27580;SDS011;63557;52.302;7.964;2022-11-04T00:33:42;13.75;;;9.23;;
27580;SDS011;63557;52.302;7.964;2022-11-04T00:38:42;12.10;;;8.17;;
27580;SDS011;63557;52.302;7.964;2022-11-04T00:43:43;13.10;;;9.82;;
27580;SDS011;63557;52.302;7.964;2022-11-04T00:48:43;11.17;;;8.33;;
27580;SDS011;63557;52.302;7.964;2022-11-04T00:53:43;12.43;;;8.10;;
27580;SDS011;63557;52.302;7.964;2022-11-04T00:58:44;7.13;;;5.07;;
27580;SDS011;63557;52.302;7.964;2022-11-04T01:03:45;5.13;;;4.63;;
27580;SDS011;63557;52.302;7.964;2022-11-04T01:08:46;6.57;;;5.18;;
27580;SDS011;63557;52.302;7.964;2022-11-04T01:13:49;6.25;;;4.13;;
27580;SDS011;63557;52.302;7.964;2022-11-04T01:18:49;4.88;;;3.92;;
27580;SDS011;63557;52.302;7.964;2022-11-04T01:23:49;6.17;;;3.93;;
27580;SDS011;63557;52.302;7.964;2022-11-04T01:28:51;5.35;;;3.70;;
27580;SDS011;63557;52.302;7.964;2022-11-04T01:33:52;4.93;;;3.05;;
27580;SDS011;63557;52.302;7.964;2022-11-04T01:38:55;3.33;;;3.05;;
27580;SDS011;63557;52.302;7.964;2022-11-04T01:43:57;3.30;;;3.00;;
27580;SDS011;63557;52.302;7.964;2022-11-04T01:49:00;4.05;;;3.10;;
27580;SDS011;63557;52.302;7.964;2022-11-04T01:54:02;5.05;;;3.03;;
27580;SDS011;63557;52.302;7.964;2022-11-04T01:59:05;4.97;;;2.53;;
27580;SDS011;63557;52.302;7.964;2022-11-04T02:04:06;6.40;;;4.32;;
27580;SDS011;63557;52.302;7.964;2022-11-04T02:09:29;6.32;;;4.75;;
27580;SDS011;63557;52.302;7.964;2022-11-04T02:14:30;13.82;;;5.60;;
27580;SDS011;63557;52.302;7.964;2022-11-04T02:34:50;11.27;;;8.90;;
27580;SDS011;63557;52.302;7.964;2022-11-04T02:39:53;12.00;;;9.15;;
27580;SDS011;63557;52.302;7.964;2022-11-04T02:45:06;12.05;;;9.15;;
27580;SDS011;63557;52.302;7.964;2022-11-04T02:50:12;15.20;;;10.88;;
27580;SDS011;63557;52.302;7.964;2022-11-04T02:55:15;15.35;;;12.07;;
27580;SDS011;63557;52.302;7.964;2022-11-04T03:00:16;14.65;;;11.93;;
27580;SDS011;63557;52.302;7.964;2022-11-04T03:05:25;14.43;;;11.70;;
27580;SDS011;63557;52.302;7.964;2022-11-04T03:10:27;11.90;;;10.60;;
27580;SDS011;63557;52.302;7.964;2022-11-04T03:15:30;11.60;;;10.40;;
27580;SDS011;63557;52.302;7.964;2022-11-04T03:20:31;12.80;;;10.70;;
27580;SDS011;63557;52.302;7.964;2022-11-04T03:25:35;12.93;;;10.48;;
27580;SDS011;63557;52.302;7.964;2022-11-04T03:30:37;14.43;;;10.35;;
27580;SDS011;63557;52.302;7.964;2022-11-04T03:35:38;10.73;;;9.63;;
27580;SDS011;63557;52.302;7.964;2022-11-04T03:40:39;12.27;;;10.03;;
27580;SDS011;63557;52.302;7.964;2022-11-04T03:45:39;12.35;;;10.30;;
27580;SDS011;63557;52.302;7.964;2022-11-04T03:50:41;12.38;;;11.07;;
27580;SDS011;63557;52.302;7.964;2022-11-04T03:55:44;13.98;;;11.35;;
27580;SDS011;63557;52.302;7.964;2022-11-04T04:00:51;15.80;;;12.43;;
27580;SDS011;63557;52.302;7.964;2022-11-04T04:06:01;14.48;;;12.98;;
27580;SDS011;63557;52.302;7.964;2022-11-04T04:16:13;16.35;;;13.23;;
27580;SDS011;63557;52.302;7.964;2022-11-04T04:21:16;18.65;;;15.13;;
27580;SDS011;63557;52.302;7.964;2022-11-04T04:26:18;20.30;;;16.45;;
27580;SDS011;63557;52.302;7.964;2022-11-04T04:31:38;20.33;;;16.98;;
27580;SDS011;63557;52.302;7.964;2022-11-04T04:42:07;21.25;;;17.67;;
27580;SDS011;63557;52.302;7.964;2022-11-04T04:47:59;21.08;;;18.25;;
27580;SDS011;63557;52.302;7.964;2022-11-04T04:52:53;22.70;;;18.17;;
27580;SDS011;63557;52.302;7.964;2022-11-04T04:57:54;27.33;;;17.92;;
27580;SDS011;63557;52.302;7.964;2022-11-04T05:02:54;22.40;;;17.63;;
27580;SDS011;63557;52.302;7.964;2022-11-04T05:07:55;22.27;;;16.00;;
27580;SDS011;63557;52.302;7.964;2022-11-04T05:12:55;22.30;;;16.87;;
27580;SDS011;63557;52.302;7.964;2022-11-04T05:18:14;24.85;;;17.75;;
27580;SDS011;63557;52.302;7.964;2022-11-04T05:23:14;22.48;;;16.48;;
27580;SDS011;63557;52.302;7.964;2022-11-04T05:28:15;20.27;;;15.57;;
27580;SDS011;63557;52.302;7.964;2022-11-04T05:33:15;20.77;;;16.30;;
27580;SDS011;63557;52.302;7.964;2022-11-04T05:38:15;23.53;;;15.67;;
27580;SDS011;63557;52.302;7.964;2022-11-04T05:43:16;22.92;;;16.45;;
27580;SDS011;63557;52.302;7.964;2022-11-04T05:48:16;22.93;;;16.83;;
27580;SDS011;63557;52.302;7.964;2022-11-04T05:53:16;19.97;;;15.87;;
27580;SDS011;63557;52.302;7.964;2022-11-04T05:58:17;25.90;;;15.65;;
27580;SDS011;63557;52.302;7.964;2022-11-04T06:03:17;26.20;;;16.57;;
27580;SDS011;63557;52.302;7.964;2022-11-04T06:08:18;25.37;;;17.00;;
27580;SDS011;63557;52.302;7.964;2022-11-04T06:13:18;21.47;;;16.47;;
27580;SDS011;63557;52.302;7.964;2022-11-04T06:18:18;21.63;;;16.33;;
27580;SDS011;63557;52.302;7.964;2022-11-04T06:23:19;27.27;;;17.40;;
27580;SDS011;63557;52.302;7.964;2022-11-04T06:28:19;22.97;;;17.10;;
27580;SDS011;63557;52.302;7.964;2022-11-04T06:33:19;20.83;;;16.07;;
27580;SDS011;63557;52.302;7.964;2022-11-04T06:38:19;19.27;;;14.80;;
27580;SDS011;63557;52.302;7.964;2022-11-04T06:43:20;23.47;;;16.53;;
27580;SDS011;63557;52.302;7.964;2022-11-04T06:48:20;21.80;;;15.10;;
27580;SDS011;63557;52.302;7.964;2022-11-04T06:53:21;22.42;;;17.08;;
27580;SDS011;63557;52.302;7.964;2022-11-04T06:58:21;26.03;;;15.80;;
27580;SDS011;63557;52.302;7.964;2022-11-04T07:03:21;27.13;;;16.90;;
27580;SDS011;63557;52.302;7.964;2022-11-04T07:08:22;22.43;;;15.03;;
27580;SDS011;63557;52.302;7.964;2022-11-04T07:13:22;23.20;;;16.43;;
27580;SDS011;63557;52.302;7.964;2022-11-04T07:18:23;22.85;;;16.63;;
27580;SDS011;63557;52.302;7.964;2022-11-04T07:23:23;23.33;;;15.75;;
27580;SDS011;63557;52.302;7.964;2022-11-04T07:28:23;23.25;;;16.50;;
27580;SDS011;63557;52.302;7.964;2022-11-04T07:33:24;23.37;;;16.70;;
27580;SDS011;63557;52.302;7.964;2022-11-04T07:38:25;22.17;;;15.93;;
27580;SDS011;63557;52.302;7.964;2022-11-04T07:43:25;21.77;;;15.00;;
27580;SDS011;63557;52.302;7.964;2022-11-04T07:48:26;27.58;;;15.65;;
27580;SDS011;63557;52.302;7.964;2022-11-04T07:53:27;21.63;;;15.67;;
27580;SDS011;63557;52.302;7.964;2022-11-04T07:58:28;33.05;;;16.60;;
27580;SDS011;63557;52.302;7.964;2022-11-04T08:03:28;23.33;;;15.83;;
27580;SDS011;63557;52.302;7.964;2022-11-04T08:08:29;21.03;;;14.83;;
27580;SDS011;63557;52.302;7.964;2022-11-04T08:13:30;23.05;;;14.60;;
27580;SDS011;63557;52.302;7.964;2022-11-04T08:18:32;22.83;;;14.45;;
27580;SDS011;63557;52.302;7.964;2022-11-04T08:23:32;22.90;;;14.25;;
27580;SDS011;63557;52.302;7.964;2022-11-04T08:28:33;20.15;;;12.60;;
27580;SDS011;63557;52.302;7.964;2022-11-04T08:33:34;19.63;;;12.90;;
27580;SDS011;63557;52.302;7.964;2022-11-04T08:38:35;20.67;;;12.13;;
27580;SDS011;63557;52.302;7.964;2022-11-04T08:43:36;22.70;;;12.60;;
27580;SDS011;63557;52.302;7.964;2022-11-04T08:48:37;20.27;;;11.68;;
27580;SDS011;63557;52.302;7.964;2022-11-04T08:53:37;20.23;;;11.88;;
27580;SDS011;63557;52.302;7.964;2022-11-04T08:58:38;23.52;;;11.43;;
27580;SDS011;63557;52.302;7.964;2022-11-04T09:03:39;24.25;;;11.85;;
27580;SDS011;63557;52.302;7.964;2022-11-04T09:08:39;19.20;;;9.77;;
27580;SDS011;63557;52.302;7.964;2022-11-04T09:13:40;14.85;;;10.07;;
27580;SDS011;63557;52.302;7.964;2022-11-04T09:18:41;18.50;;;9.30;;
27580;SDS011;63557;52.302;7.964;2022-11-04T09:23:41;17.38;;;7.93;;
27580;SDS011;63557;52.302;7.964;2022-11-04T09:28:41;16.53;;;8.10;;
27580;SDS011;63557;52.302;7.964;2022-11-04T09:33:42;14.25;;;7.95;;
27580;SDS011;63557;52.302;7.964;2022-11-04T09:38:43;11.63;;;6.60;;
27580;SDS011;63557;52.302;7.964;2022-11-04T09:44:02;12.75;;;7.95;;
27580;SDS011;63557;52.302;7.964;2022-11-04T09:49:04;17.13;;;7.53;;
27580;SDS011;63557;52.302;7.964;2022-11-04T09:59:20;18.65;;;8.80;;
27580;SDS011;63557;52.302;7.964;2022-11-04T10:04:27;14.70;;;7.80;;
27580;SDS011;63557;52.302;7.964;2022-11-04T10:09:45;14.52;;;7.20;;
27580;SDS011;63557;52.302;7.964;2022-11-04T10:15:12;12.98;;;6.97;;
27580;SDS011;63557;52.302;7.964;2022-11-04T10:25:12;10.63;;;7.05;;
27580;SDS011;63557;52.302;7.964;2022-11-04T10:30:20;13.50;;;6.65;;
27580;SDS011;63557;52.302;7.964;2022-11-04T10:35:21;12.85;;;7.18;;
27580;SDS011;63557;52.302;7.964;2022-11-04T10:40:29;12.43;;;7.13;;
27580;SDS011;63557;52.302;7.964;2022-11-04T10:45:42;12.93;;;6.60;;
27580;SDS011;63557;52.302;7.964;2022-11-04T10:51:04;16.50;;;6.78;;
27580;SDS011;63557;52.302;7.964;2022-11-04T10:56:13;13.30;;;7.50;;
27580;SDS011;63557;52.302;7.964;2022-11-04T11:01:27;13.48;;;7.35;;
27580;SDS011;63557;52.302;7.964;2022-11-04T11:06:32;18.20;;;7.07;;
27580;SDS011;63557;52.302;7.964;2022-11-04T11:11:50;10.67;;;6.17;;
27580;SDS011;63557;52.302;7.964;2022-11-04T11:16:51;14.02;;;6.13;;
27580;SDS011;63557;52.302;7.964;2022-11-04T11:21:53;12.87;;;5.13;;
27580;SDS011;63557;52.302;7.964;2022-11-04T11:26:54;11.98;;;5.60;;
27580;SDS011;63557;52.302;7.964;2022-11-04T11:31:55;14.23;;;5.97;;
27580;SDS011;63557;52.302;7.964;2022-11-04T11:36:56;9.18;;;5.57;;
27580;SDS011;63557;52.302;7.964;2022-11-04T11:42:05;10.15;;;4.18;;
27580;SDS011;63557;52.302;7.964;2022-11-04T11:47:06;10.98;;;4.82;;
27580;SDS011;63557;52.302;7.964;2022-11-04T11:57:34;7.10;;;4.00;;
27580;SDS011;63557;52.302;7.964;2022-11-04T12:02:44;9.48;;;4.78;;
27580;SDS011;63557;52.302;7.964;2022-11-04T12:12:49;9.73;;;4.57;;
27580;SDS011;63557;52.302;7.964;2022-11-04T12:23:42;11.70;;;4.53;;
27580;SDS011;63557;52.302;7.964;2022-11-04T12:28:25;8.85;;;5.10;;
27580;SDS011;63557;52.302;7.964;2022-11-04T12:59:11;13.63;;;5.63;;
27580;SDS011;63557;52.302;7.964;2022-11-04T13:04:22;10.35;;;5.22;;
27580;SDS011;63557;52.302;7.964;2022-11-04T13:14:41;7.35;;;4.32;;
27580;SDS011;63557;52.302;7.964;2022-11-04T13:24:47;7.05;;;4.20;;
27580;SDS011;63557;52.302;7.964;2022-11-04T13:29:49;7.37;;;4.33;;
27580;SDS011;63557;52.302;7.964;2022-11-04T13:34:56;11.18;;;4.30;;
27580;SDS011;63557;52.302;7.964;2022-11-04T13:40:00;6.97;;;4.78;;
27580;SDS011;63557;52.302;7.964;2022-11-04T13:45:04;11.95;;;4.75;;
27580;SDS011;63557;52.302;7.964;2022-11-04T13:50:12;10.07;;;4.80;;
27580;SDS011;63557;52.302;7.964;2022-11-04T13:55:27;5.80;;;4.20;;
27580;SDS011;63557;52.302;7.964;2022-11-04T14:00:28;10.48;;;4.18;;
27580;SDS011;63557;52.302;7.964;2022-11-04T14:21:04;10.85;;;6.53;;
27580;SDS011;63557;52.302;7.964;2022-11-04T14:26:12;15.38;;;7.32;;
27580;SDS011;63557;52.302;7.964;2022-11-04T14:31:13;13.80;;;7.55;;
27580;SDS011;63557;52.302;7.964;2022-11-04T14:36:16;11.43;;;6.80;;
27580;SDS011;63557;52.302;7.964;2022-11-04T14:41:29;10.20;;;7.03;;
27580;SDS011;63557;52.302;7.964;2022-11-04T14:46:33;11.50;;;7.60;;
27580;SDS011;63557;52.302;7.964;2022-11-04T14:51:39;14.95;;;6.80;;
27580;SDS011;63557;52.302;7.964;2022-11-04T14:56:40;13.73;;;8.15;;
27580;SDS011;63557;52.302;7.964;2022-11-04T15:01:40;14.02;;;7.68;;
27580;SDS011;63557;52.302;7.964;2022-11-04T15:06:41;14.23;;;7.95;;
27580;SDS011;63557;52.302;7.964;2022-11-04T15:11:42;13.23;;;7.63;;
27580;SDS011;63557;52.302;7.964;2022-11-04T15:17:01;14.52;;;7.85;;
27580;SDS011;63557;52.302;7.964;2022-11-04T15:22:02;12.57;;;7.82;;
27580;SDS011;63557;52.302;7.964;2022-11-04T15:27:04;10.30;;;6.90;;
27580;SDS011;63557;52.302;7.964;2022-11-04T15:32:05;10.50;;;6.97;;
27580;SDS011;63557;52.302;7.964;2022-11-04T15:37:05;14.13;;;8.35;;
27580;SDS011;63557;52.302;7.964;2022-11-04T15:42:07;11.15;;;6.95;;
27580;SDS011;63557;52.302;7.964;2022-11-04T15:47:28;10.40;;;6.78;;
27580;SDS011;63557;52.302;7.964;2022-11-04T15:52:29;12.80;;;8.25;;
27580;SDS011;63557;52.302;7.964;2022-11-04T15:57:30;20.20;;;8.60;;
27580;SDS011;63557;52.302;7.964;2022-11-04T16:02:32;14.35;;;8.45;;
27580;SDS011;63557;52.302;7.964;2022-11-04T16:07:34;9.15;;;7.95;;
27580;SDS011;63557;52.302;7.964;2022-11-04T16:12:35;11.27;;;8.32;;
27580;SDS011;63557;52.302;7.964;2022-11-04T16:17:42;14.80;;;9.88;;
27580;SDS011;63557;52.302;7.964;2022-11-04T16:22:42;13.35;;;8.55;;
27580;SDS011;63557;52.302;7.964;2022-11-04T16:27:43;14.57;;;8.50;;
27580;SDS011;63557;52.302;7.964;2022-11-04T16:32:45;30.65;;;12.40;;
27580;SDS011;63557;52.302;7.964;2022-11-04T16:37:47;25.00;;;10.48;;
27580;SDS011;63557;52.302;7.964;2022-11-04T16:42:48;18.38;;;9.23;;
27580;SDS011;63557;52.302;7.964;2022-11-04T16:47:49;17.65;;;9.75;;
27580;SDS011;63557;52.302;7.964;2022-11-04T16:52:50;13.68;;;9.50;;
27580;SDS011;63557;52.302;7.964;2022-11-04T16:57:55;17.52;;;10.95;;
27580;SDS011;63557;52.302;7.964;2022-11-04T17:02:58;18.98;;;12.05;;
27580;SDS011;63557;52.302;7.964;2022-11-04T17:07:58;24.40;;;13.88;;
27580;SDS011;63557;52.302;7.964;2022-11-04T17:12:59;52.40;;;41.33;;
27580;SDS011;63557;52.302;7.964;2022-11-04T17:17:59;20.83;;;11.20;;
27580;SDS011;63557;52.302;7.964;2022-11-04T17:22:59;17.73;;;10.47;;
27580;SDS011;63557;52.302;7.964;2022-11-04T17:28:00;18.00;;;11.83;;
27580;SDS011;63557;52.302;7.964;2022-11-04T17:33:00;19.63;;;11.97;;
27580;SDS011;63557;52.302;7.964;2022-11-04T17:38:05;16.23;;;10.33;;
27580;SDS011;63557;52.302;7.964;2022-11-04T17:43:06;37.40;;;23.83;;
27580;SDS011;63557;52.302;7.964;2022-11-04T17:48:25;26.17;;;15.70;;
27580;SDS011;63557;52.302;7.964;2022-11-04T17:53:25;20.73;;;14.13;;
27580;SDS011;63557;52.302;7.964;2022-11-04T17:58:25;23.87;;;13.50;;
27580;SDS011;63557;52.302;7.964;2022-11-04T18:03:28;22.95;;;14.32;;
27580;SDS011;63557;52.302;7.964;2022-11-04T18:08:29;19.20;;;13.73;;
27580;SDS011;63557;52.302;7.964;2022-11-04T18:13:30;21.73;;;14.50;;
27580;SDS011;63557;52.302;7.964;2022-11-04T18:18:30;25.10;;;15.05;;
27580;SDS011;63557;52.302;7.964;2022-11-04T18:23:31;23.10;;;13.47;;
27580;SDS011;63557;52.302;7.964;2022-11-04T18:28:31;22.70;;;12.40;;
27580;SDS011;63557;52.302;7.964;2022-11-04T18:33:32;18.73;;;11.70;;
27580;SDS011;63557;52.302;7.964;2022-11-04T18:38:32;19.80;;;10.97;;
27580;SDS011;63557;52.302;7.964;2022-11-04T18:43:32;21.50;;;10.37;;
27580;SDS011;63557;52.302;7.964;2022-11-04T18:48:33;18.90;;;12.20;;
27580;SDS011;63557;52.302;7.964;2022-11-04T18:53:33;17.95;;;10.98;;
27580;SDS011;63557;52.302;7.964;2022-11-04T18:58:34;17.90;;;11.18;;
27580;SDS011;63557;52.302;7.964;2022-11-04T19:03:35;17.25;;;9.77;;
27580;SDS011;63557;52.302;7.964;2022-11-04T19:08:36;20.40;;;10.35;;
27580;SDS011;63557;52.302;7.964;2022-11-04T19:13:36;17.92;;;9.27;;
27580;SDS011;63557;52.302;7.964;2022-11-04T19:18:37;28.42;;;15.95;;
27580;SDS011;63557;52.302;7.964;2022-11-04T19:23:39;15.02;;;8.02;;
27580;SDS011;63557;52.302;7.964;2022-11-04T19:28:40;13.15;;;8.13;;
27580;SDS011;63557;52.302;7.964;2022-11-04T19:33:40;22.13;;;8.27;;
27580;SDS011;63557;52.302;7.964;2022-11-04T19:38:41;18.00;;;8.50;;
27580;SDS011;63557;52.302;7.964;2022-11-04T19:43:42;18.05;;;8.77;;
27580;SDS011;63557;52.302;7.964;2022-11-04T19:48:43;18.23;;;8.30;;
27580;SDS011;63557;52.302;7.964;2022-11-04T19:53:43;14.40;;;8.27;;
27580;SDS011;63557;52.302;7.964;2022-11-04T19:58:44;16.05;;;8.00;;
27580;SDS011;63557;52.302;7.964;2022-11-04T20:03:44;13.50;;;7.85;;
27580;SDS011;63557;52.302;7.964;2022-11-04T20:08:45;14.52;;;7.35;;
27580;SDS011;63557;52.302;7.964;2022-11-04T20:13:46;14.02;;;7.32;;
27580;SDS011;63557;52.302;7.964;2022-11-04T20:18:48;15.70;;;6.95;;
27580;SDS011;63557;52.302;7.964;2022-11-04T20:23:56;13.30;;;7.13;;
27580;SDS011;63557;52.302;7.964;2022-11-04T20:28:57;16.80;;;8.18;;
27580;SDS011;63557;52.302;7.964;2022-11-04T20:33:57;18.05;;;8.65;;
27580;SDS011;63557;52.302;7.964;2022-11-04T20:39:31;24.05;;;12.27;;
27580;SDS011;63557;52.302;7.964;2022-11-04T20:44:24;14.35;;;7.82;;
27580;SDS011;63557;52.302;7.964;2022-11-04T20:49:25;18.23;;;8.90;;
27580;SDS011;63557;52.302;7.964;2022-11-04T20:54:25;19.13;;;10.03;;
27580;SDS011;63557;52.302;7.964;2022-11-04T20:59:26;24.17;;;10.90;;
27580;SDS011;63557;52.302;7.964;2022-11-04T21:04:26;20.52;;;11.10;;
27580;SDS011;63557;52.302;7.964;2022-11-04T21:09:27;30.90;;;17.10;;
27580;SDS011;63557;52.302;7.964;2022-11-04T21:14:28;26.98;;;15.48;;
27580;SDS011;63557;52.302;7.964;2022-11-04T21:19:33;23.80;;;14.33;;
27580;SDS011;63557;52.302;7.964;2022-11-04T21:24:33;27.97;;;15.00;;
27580;SDS011;63557;52.302;7.964;2022-11-04T21:29:34;25.75;;;14.98;;
27580;SDS011;63557;52.302;7.964;2022-11-04T21:34:35;26.98;;;15.20;;
27580;SDS011;63557;52.302;7.964;2022-11-04T21:39:36;27.15;;;14.60;;
27580;SDS011;63557;52.302;7.964;2022-11-04T21:44:37;24.98;;;14.68;;
27580;SDS011;63557;52.302;7.964;2022-11-04T21:49:37;26.10;;;13.73;;
27580;SDS011;63557;52.302;7.964;2022-11-04T21:54:37;22.87;;;13.63;;
27580;SDS011;63557;52.302;7.964;2022-11-04T21:59:38;35.10;;;19.50;;
27580;SDS011;63557;52.302;7.964;2022-11-04T22:04:38;36.40;;;19.75;;
27580;SDS011;63557;52.302;7.964;2022-11-04T22:09:38;38.63;;;22.73;;
27580;SDS011;63557;52.302;7.964;2022-11-04T22:14:39;36.17;;;21.20;;
27580;SDS011;63557;52.302;7.964;2022-11-04T22:19:40;30.75;;;17.27;;
27580;SDS011;63557;52.302;7.964;2022-11-04T22:24:40;42.03;;;17.63;;
27580;SDS011;63557;52.302;7.964;2022-11-04T22:29:40;33.27;;;17.30;;
27580;SDS011;63557;52.302;7.964;2022-11-04T22:34:41;31.52;;;18.50;;
27580;SDS011;63557;52.302;7.964;2022-11-04T22:39:41;32.87;;;16.30;;
27580;SDS011;63557;52.302;7.964;2022-11-04T22:44:41;32.23;;;17.67;;
27580;SDS011;63557;52.302;7.964;2022-11-04T22:49:42;28.73;;;15.50;;
27580;SDS011;63557;52.302;7.964;2022-11-04T22:54:42;28.07;;;16.53;;
27580;SDS011;63557;52.302;7.964;2022-11-04T22:59:42;32.77;;;17.37;;
27580;SDS011;63557;52.302;7.964;2022-11-04T23:04:43;35.03;;;17.87;;
27580;SDS011;63557;52.302;7.964;2022-11-04T23:09:44;37.40;;;18.25;;
27580;SDS011;63557;52.302;7.964;2022-11-04T23:15:03;33.35;;;19.50;;
27580;SDS011;63557;52.302;7.964;2022-11-04T23:20:22;32.50;;;19.33;;
27580;SDS011;63557;52.302;7.964;2022-11-04T23:25:26;37.90;;;20.10;;
27580;SDS011;63557;52.302;7.964;2022-11-04T23:30:28;40.40;;;20.45;;
27580;SDS011;63557;52.302;7.964;2022-11-04T23:35:32;32.65;;;20.17;;
27580;SDS011;63557;52.302;7.964;2022-11-04T23:40:53;38.80;;;21.95;;
27580;SDS011;63557;52.302;7.964;2022-11-04T23:46:12;48.67;;;27.60;;
27580;SDS011;63557;52.302;7.964;2022-11-04T23:51:31;34.25;;;19.80;;
27580;SDS011;63557;52.302;7.964;2022-11-04T23:56:50;39.05;;;20.35;;
